Relevés horaires Charleroi (Belgique)


Relevés horaires à Charleroi - Mardi 07 Avr. 2026
Heure UTC1 Température [°C] Vent [km/h] Hum. [%] Pres.4 [hPa] Visi. [Km] Nébu. [octa] Préc.5 [mm] Cond.
2m. Res. Ros. Dir.2 Vit. Moy. Raf.3
23:00 9.3 9.3 2.0 E 3.7 5.6 5.6 60 1024.4(0.2/3h) 20 1/8 -- --
22:00 10.3 9.9 2.2 ENE 5.6 7.4 11.1 57 1024.3(0.5/3h) 20 1/8 -- --
21:00 11.8 11.2 2.0 ENE 7.4 9.3 16.7 51 1024.3(0.6/3h) 20 1/8 -- --
20:00 12.3 11.8 3.3 ENE 7.4 9.3 16.7 54 1024(0.4/3h) 20 1/8 -- --
19:00 13.2 12.9 3.6 ENE 7.4 9.3 11.1 52 1023.6(0.2/3h) 20 1/8 -- --
18:00 15.1 14.8 5.1 ENE 9.3 13.0 16.7 51 1023.4(-0.2/3h) 20 1/8 0/12h
--
17:00 16.9 16.8 6.6 ENE 11.1 11.1 14.8 51 1023.2(-0.6/3h) 20 1/8 -- --
16:00 17.7 17.7 5.8 ENE 11.1 13.0 16.7 46 1023.1(-1.1/3h) 20 1/8 -- --
15:00 18.3 18.3 5.9 NE 9.3 11.1 16.7 44 1023.4(-0.9/3h) 20 1/8 -- --
14:00 17.9 17.9 5.9 ENE 9.3 11.1 16.7 45 1023.8(-1.2/3h) 20 1/8 -- --
13:00 17.2 17.2 5.0 NE 9.3 11.1 16.7 44 1024.3(-1.0/3h) 20 1/8 -- --
12:00 16.6 16.4 4.9 ENE 11.1 11.1 16.7 46 1024.4(-0.9/3h) 20 1/8 0/6h
--
11:00 16.1 16 4.6 E 9.3 9.3 14.8 46 1025.1(0.1/3h) 20 1/8 -- --
10:00 14.6 14.5 3.7 ENE 7.4 7.4 11.1 48 1025.6(0.1/3h) 20 1/8 -- --
09:00 13.1 13.1 2.6 E 5.6 7.4 9.3 49 1025.7(0.4/3h) 20 1/8 -- --
08:00 11.4 11.2 2.4 E 5.6 5.6 9.3 54 1025.6(0.3/3h) 20 1/8 -- --
07:00 8.2 8.2 1.6 E 3.7 5.6 9.3 63 1026(0.2/3h) 20 1/8 -- --
06:00 5.0 3.9 1.1 E 5.6 5.6 9.3 76 1026(-0.2/3h) 20 1/8 0/12h
--
05:00 4.4 3.2 0.7 E 5.6 5.6 7.4 77 1025.9(-0.3/3h) 20 1/8 -- --
04:00 5.4 5.4 0.6 E 3.7 5.6 7.4 71 1026(0.1/3h) 20 1/8 -- --
03:00 4.4 3.2 0.7 E 5.6 5.6 7.4 77 1026.2(-0.2/3h) 20 1/8 -- --
02:00 4.9 3.7 1.0 ENE 5.6 5.6 5.6 76 1026.1(-0.4/3h) 20 1/8 -- --
01:00 7.2 6.4 0.9 E 5.6 5.6 7.4 64 1026(-0.6/3h) 20 1/8 -- --
00:00 7.5 6.7 0.6 E 5.6 9.3 11.1 62 1026.2(-0.7/3h) 20 1/8 0/6h
0/24h
--

1 Coordinated Universal Time. Actuellement il est 22:00 locale et 20:00 UTC.

2 Le vent souffle depuis la direction indiquée vers la direction oposée.

3 Les rafales max. sont disponible 40 min après l'heure du relevé.

4 Pour les stations d'altitude (plus de 600m) le géopotentiel du niveau le plus proche de la pression obligatoire est indiqué.

5 Les stations disposant d'un diffuseur peuvent indiquer "trace". Cela signifie que des précipitations ont touchés le sol mais que la quantité est inférieure à 0.1 mm.

Récapitulatif de la journée
Température [°C] Vent [km/h] Ensoleillement4 [h] Precipitations totale5 [mm] Pression [Hpa]
Min1 Max.2 Moy.3 Max. Min Max.
3.3 18.8 8.4 16.7 0 h 0 min 0 1023.1 1026.2

1 Température minimale relevée entre 18:00 UTC la veille et 18:00 UTC le jour donné.

2 Température maximale relevée entre 06:00 UTC le jour donné et 06:00 UTC le lendemain.

3 Vent moyen de la journée basé sur les relevés horaires.

4 Ensoleillement en heures relevé entre 06:00 UTC la veille et 06:00 UTC le jour donné.

5 Précipitations totales tombées entre 06:00 UTC la jour donné et 06:00 UTC le lendemain.

Graphiques horaires